Time;durP1;ratioP1;P1;durP2;ratioP2;P2;SDS_P1;SDS_P2;PMS_P1;PMS_P2;Temp;Humidity;BMP_temperature;BMP_pressure;BME280_temperature;BME280_humidity;BME280_pressure;Samples;Min_cycle;Max_cycle;Signal;HPM_P1;HPM_P2
2024/01/12 00:01:21;;;;;;;0.10;0.10;;;-4.80;99.90;;;;;;5049632;28;20209;-67
2024/01/12 00:03:46;;;;;;;0.33;0.33;;;-4.90;99.90;;;;;;5050377;28;20221;-68
2024/01/12 00:06:12;;;;;;;1.00;1.00;;;-4.90;99.90;;;;;;5051205;28;20212;-68
2024/01/12 00:08:38;;;;;;;0.93;0.90;;;-4.90;99.90;;;;;;5050467;28;20181;-68
2024/01/12 00:11:07;;;;;;;0.10;0.10;;;-5.00;99.90;;;;;;5049614;28;20177;-68
2024/01/12 00:13:33;;;;;;;0.10;0.10;;;-4.90;99.90;;;;;;5050724;28;20260;-68
2024/01/12 00:16:00;;;;;;;0.20;0.20;;;-5.00;99.90;;;;;;5050348;28;20272;-68
2024/01/12 00:18:25;;;;;;;0.33;0.33;;;-5.00;99.90;;;;;;5050647;28;20217;-68
2024/01/12 00:20:51;;;;;;;0.60;0.60;;;-5.00;99.90;;;;;;5050213;28;20749;-68
2024/01/12 00:23:16;;;;;;;0.00;0.00;;;-5.00;99.90;;;;;;5050454;28;20223;-69
2024/01/12 00:25:42;;;;;;;0.50;0.40;;;-5.00;99.90;;;;;;5050026;28;20189;-68
2024/01/12 00:28:08;;;;;;;0.47;0.47;;;-5.00;99.90;;;;;;5050302;28;20181;-68
2024/01/12 00:30:35;;;;;;;0.30;0.30;;;-5.00;99.90;;;;;;5050440;28;20254;-68
2024/01/12 00:33:01;;;;;;;1.13;0.50;;;-5.00;99.90;;;;;;5050562;28;20200;-68
2024/01/12 00:35:28;;;;;;;0.30;0.30;;;-5.10;99.90;;;;;;5052351;28;20232;-69
2024/01/12 00:37:53;;;;;;;0.40;0.40;;;-5.10;99.90;;;;;;5053349;28;20182;-68
2024/01/12 00:40:19;;;;;;;1.53;0.40;;;-5.00;99.90;;;;;;5045609;28;20189;-68
2024/01/12 00:42:45;;;;;;;0.23;0.23;;;-5.00;99.90;;;;;;5051477;28;20302;-68
2024/01/12 00:45:10;;;;;;;0.17;0.17;;;-5.00;99.90;;;;;;5053949;28;20637;-69
2024/01/12 00:47:36;;;;;;;0.37;0.37;;;-5.00;99.90;;;;;;5053733;28;20523;-68
2024/01/12 00:50:01;;;;;;;0.00;0.00;;;-5.00;99.90;;;;;;5054132;28;20177;-68
2024/01/12 00:52:27;;;;;;;0.50;0.50;;;-5.10;99.90;;;;;;5054122;28;20189;-68
2024/01/12 00:54:52;;;;;;;0.53;0.53;;;-5.10;99.90;;;;;;5053689;28;20182;-68
2024/01/12 00:57:18;;;;;;;0.87;0.87;;;-5.10;99.90;;;;;;5052318;28;20586;-68
2024/01/12 00:59:44;;;;;;;0.00;0.00;;;-5.10;99.90;;;;;;5053182;28;20178;-68
2024/01/12 01:02:09;;;;;;;0.33;0.33;;;-5.10;99.90;;;;;;5052302;28;20217;-69
2024/01/12 01:04:35;;;;;;;0.00;0.00;;;-5.10;99.90;;;;;;5053262;28;20196;-69
2024/01/12 01:07:00;;;;;;;0.30;0.30;;;-5.10;99.90;;;;;;5053960;28;21579;-68
2024/01/12 01:09:26;;;;;;;0.33;0.33;;;-5.10;99.90;;;;;;5053465;28;20192;-68
2024/01/12 01:11:52;;;;;;;0.30;0.30;;;-5.20;99.90;;;;;;5053613;28;20645;-68
2024/01/12 01:14:18;;;;;;;0.40;0.30;;;-5.20;99.90;;;;;;5053582;28;20223;-68
2024/01/12 01:16:43;;;;;;;0.10;0.10;;;-5.20;99.90;;;;;;5053673;28;20264;-68
2024/01/12 01:19:09;;;;;;;0.10;0.10;;;-5.20;99.90;;;;;;5053453;28;20173;-69
2024/01/12 01:21:35;;;;;;;0.10;0.10;;;-5.20;99.90;;;;;;5051898;28;20225;-68
2024/01/12 01:24:00;;;;;;;0.70;0.70;;;-5.20;99.90;;;;;;5053650;28;20226;-69
2024/01/12 01:26:26;;;;;;;0.00;0.00;;;-5.20;99.90;;;;;;5053635;28;20515;-68
2024/01/12 01:28:52;;;;;;;0.00;0.00;;;-5.20;99.90;;;;;;5052084;28;20324;-68
2024/01/12 01:31:17;;;;;;;0.10;0.10;;;-5.30;99.90;;;;;;5053404;28;20593;-68
2024/01/12 01:33:43;;;;;;;0.77;0.77;;;-5.30;99.90;;;;;;5053360;28;20189;-69
2024/01/12 01:36:08;;;;;;;0.23;0.23;;;-5.30;99.90;;;;;;5051977;28;20189;-68
2024/01/12 01:38:34;;;;;;;0.10;0.10;;;-5.30;99.90;;;;;;5051946;28;21077;-69
2024/01/12 01:40:59;;;;;;;0.13;0.13;;;-5.40;99.90;;;;;;5052617;28;20239;-68
2024/01/12 01:43:25;;;;;;;0.10;0.10;;;-5.30;99.90;;;;;;5053126;28;20677;-69
2024/01/12 01:45:52;;;;;;;1.07;1.07;;;-5.40;99.90;;;;;;5052220;28;20178;-68
2024/01/12 01:48:17;;;;;;;0.10;0.10;;;-5.40;99.90;;;;;;5051288;28;20239;-68
2024/01/12 01:50:43;;;;;;;0.30;0.30;;;-5.40;99.90;;;;;;5052820;28;20641;-68
2024/01/12 01:53:08;;;;;;;0.33;0.33;;;-5.40;99.90;;;;;;5051524;28;20604;-68
2024/01/12 01:55:34;;;;;;;0.13;0.13;;;-5.40;99.90;;;;;;5052822;28;21201;-68
2024/01/12 01:58:02;;;;;;;0.10;0.10;;;-5.40;99.90;;;;;;5052771;28;20185;-68
2024/01/12 02:00:30;;;;;;;0.23;0.23;;;-5.40;99.90;;;;;;5052856;28;20741;-68
2024/01/12 02:02:56;;;;;;;0.07;0.07;;;-5.40;99.90;;;;;;5052341;28;20760;-68
2024/01/12 02:05:22;;;;;;;0.60;0.60;;;-5.40;99.90;;;;;;5052835;28;20261;-67
2024/01/12 02:07:47;;;;;;;0.27;0.27;;;-5.40;99.90;;;;;;5052820;28;20188;-68
2024/01/12 02:10:13;;;;;;;0.20;0.20;;;-5.40;99.90;;;;;;5051323;28;20439;-67
2024/01/12 02:12:39;;;;;;;0.07;0.07;;;-5.40;99.90;;;;;;5052534;28;20671;-67
2024/01/12 02:15:08;;;;;;;0.20;0.20;;;-5.40;99.90;;;;;;5052427;28;20197;-68
2024/01/12 02:17:34;;;;;;;0.10;0.10;;;-5.40;99.90;;;;;;5052358;28;20185;-67
2024/01/12 02:20:00;;;;;;;0.23;0.23;;;-5.40;99.90;;;;;;5052618;28;20526;-67
2024/01/12 02:22:26;;;;;;;0.40;0.40;;;-5.50;99.90;;;;;;5052271;28;20209;-68
2024/01/12 02:24:52;;;;;;;0.00;0.00;;;-5.50;99.90;;;;;;5051893;28;20181;-67
2024/01/12 02:27:19;;;;;;;0.83;0.60;;;-5.50;99.90;;;;;;5052178;28;20251;-67
2024/01/12 02:29:45;;;;;;;0.13;0.13;;;-5.60;99.90;;;;;;5050937;28;20205;-67
2024/01/12 02:32:12;;;;;;;0.00;0.00;;;-5.60;99.90;;;;;;5052128;28;20661;-67
2024/01/12 02:34:38;;;;;;;0.10;0.10;;;-5.60;99.90;;;;;;5051935;28;20268;-67
2024/01/12 02:37:03;;;;;;;0.10;0.10;;;-5.60;99.90;;;;;;5050676;28;20324;-67
2024/01/12 02:39:29;;;;;;;0.00;0.00;;;-5.70;99.90;;;;;;5050588;28;20177;-68
2024/01/12 02:41:57;;;;;;;0.20;0.20;;;-5.70;99.90;;;;;;5051546;28;20228;-67
2024/01/12 02:44:26;;;;;;;0.67;0.67;;;-5.70;99.90;;;;;;5050793;28;20176;-67
2024/01/12 02:46:52;;;;;;;0.80;0.80;;;-5.80;99.90;;;;;;5051456;28;20189;-67
2024/01/12 02:49:17;;;;;;;0.30;0.30;;;-5.80;99.90;;;;;;5050341;28;20218;-67
2024/01/12 02:51:43;;;;;;;0.30;0.30;;;-5.80;99.90;;;;;;5050582;28;20645;-67
2024/01/12 02:54:08;;;;;;;0.17;0.17;;;-5.70;99.90;;;;;;5051788;28;20182;-68
2024/01/12 02:56:35;;;;;;;0.17;0.17;;;-5.70;99.90;;;;;;5051871;28;20642;-66
2024/01/12 02:59:00;;;;;;;0.53;0.53;;;-5.70;99.90;;;;;;5051475;28;20192;-66
2024/01/12 03:01:27;;;;;;;0.50;0.50;;;-5.70;99.90;;;;;;5050633;28;20225;-68
2024/01/12 03:03:52;;;;;;;0.20;0.20;;;-5.70;99.90;;;;;;5051731;28;20247;-68
2024/01/12 03:06:18;;;;;;;0.80;0.80;;;-5.70;99.90;;;;;;5051664;28;20185;-67
2024/01/12 03:08:43;;;;;;;0.83;0.83;;;-5.60;99.90;;;;;;5051796;28;20223;-68
2024/01/12 03:11:09;;;;;;;0.47;0.47;;;-5.60;99.90;;;;;;5052089;28;20574;-68
2024/01/12 03:13:35;;;;;;;0.00;0.00;;;-5.70;99.90;;;;;;5052132;28;20188;-67
2024/01/12 03:16:00;;;;;;;0.10;0.10;;;-5.70;99.90;;;;;;5051964;28;20246;-68
2024/01/12 03:18:27;;;;;;;0.40;0.40;;;-5.70;99.90;;;;;;5050077;28;20211;-68
2024/01/12 03:20:53;;;;;;;0.27;0.27;;;-5.80;99.90;;;;;;5050159;28;20177;-67
2024/01/12 03:23:18;;;;;;;0.30;0.30;;;-5.80;99.90;;;;;;5051304;28;20188;-67
2024/01/12 03:25:44;;;;;;;0.10;0.10;;;-5.80;99.90;;;;;;5049870;28;20248;-67
2024/01/12 03:28:09;;;;;;;0.43;0.43;;;-5.80;99.90;;;;;;5051545;28;20201;-68
2024/01/12 03:30:35;;;;;;;0.87;0.50;;;-5.90;99.90;;;;;;5051088;28;20695;-68
2024/01/12 03:33:00;;;;;;;1.07;0.80;;;-5.90;99.90;;;;;;5049728;28;20645;-67
2024/01/12 03:35:26;;;;;;;0.03;0.03;;;-5.80;99.90;;;;;;5051124;28;20223;-67
2024/01/12 03:37:52;;;;;;;0.67;0.67;;;-5.80;99.90;;;;;;5051121;28;20209;-67
2024/01/12 03:40:17;;;;;;;0.37;0.37;;;-5.80;99.90;;;;;;5048643;28;20217;-67
2024/01/12 03:42:43;;;;;;;0.10;0.10;;;-5.80;99.90;;;;;;5052298;28;20217;-67
2024/01/12 03:45:09;;;;;;;0.33;0.33;;;-5.80;99.90;;;;;;5052658;28;20220;-67
2024/01/12 03:47:34;;;;;;;0.27;0.27;;;-5.80;99.90;;;;;;5051838;28;20572;-66
2024/01/12 03:50:00;;;;;;;1.03;0.40;;;-5.80;99.90;;;;;;5051765;28;20316;-67
2024/01/12 03:52:25;;;;;;;0.73;0.73;;;-5.80;99.90;;;;;;5052303;28;20633;-68
2024/01/12 03:54:51;;;;;;;0.57;0.57;;;-5.80;99.90;;;;;;5051323;28;20212;-67
2024/01/12 03:57:16;;;;;;;0.10;0.10;;;-5.80;99.90;;;;;;5051161;28;20683;-68
2024/01/12 03:59:42;;;;;;;0.30;0.13;;;-5.90;99.90;;;;;;5050881;28;20236;-67
2024/01/12 04:02:07;;;;;;;0.40;0.40;;;-5.90;99.90;;;;;;5051874;28;20216;-68
2024/01/12 04:04:33;;;;;;;0.20;0.20;;;-5.90;99.90;;;;;;5051372;28;20170;-67
2024/01/12 04:06:58;;;;;;;0.07;0.07;;;-5.90;99.90;;;;;;5050990;28;20178;-67
2024/01/12 04:09:24;;;;;;;0.30;0.30;;;-5.90;99.90;;;;;;5053260;28;20707;-67
2024/01/12 04:11:49;;;;;;;1.50;1.40;;;-5.90;99.90;;;;;;5058032;28;20714;-68
2024/01/12 04:14:15;;;;;;;0.70;0.70;;;-5.90;99.90;;;;;;5057332;28;20223;-68
2024/01/12 04:16:40;;;;;;;0.30;0.27;;;-5.90;99.90;;;;;;5057639;28;20235;-68
2024/01/12 04:19:06;;;;;;;0.00;0.00;;;-5.90;99.90;;;;;;5057297;28;20169;-69
2024/01/12 04:21:31;;;;;;;0.43;0.43;;;-6.00;99.90;;;;;;5055550;28;20665;-68
2024/01/12 04:23:57;;;;;;;0.40;0.40;;;-6.00;99.90;;;;;;5056662;28;20207;-69
2024/01/12 04:26:22;;;;;;;0.50;0.50;;;-6.00;99.90;;;;;;5055883;28;20621;-70
2024/01/12 04:28:48;;;;;;;0.90;0.90;;;-6.00;99.90;;;;;;5057259;28;20204;-68
2024/01/12 04:31:13;;;;;;;0.10;0.10;;;-6.10;99.90;;;;;;5057565;28;20185;-67
2024/01/12 04:33:40;;;;;;;0.43;0.43;;;-6.00;99.90;;;;;;5055909;28;20665;-67
2024/01/12 04:36:06;;;;;;;1.00;1.00;;;-6.00;99.90;;;;;;5057684;28;20193;-66
2024/01/12 04:38:32;;;;;;;0.60;0.60;;;-6.00;99.90;;;;;;5057370;28;20189;-70
2024/01/12 04:40:58;;;;;;;0.10;0.10;;;-6.10;99.90;;;;;;5055710;28;20596;-66
2024/01/12 04:43:23;;;;;;;1.13;1.03;;;-6.10;99.90;;;;;;5056890;28;20181;-67
2024/01/12 04:45:49;;;;;;;0.17;0.17;;;-6.10;99.90;;;;;;5057401;28;20276;-66
2024/01/12 04:48:14;;;;;;;0.23;0.23;;;-6.10;99.90;;;;;;5057513;28;20226;-69
2024/01/12 04:50:40;;;;;;;1.50;0.63;;;-6.10;99.90;;;;;;5057124;28;20192;-68
2024/01/12 04:53:05;;;;;;;0.23;0.23;;;-6.10;99.90;;;;;;5057371;28;20181;-68
2024/01/12 04:55:31;;;;;;;0.20;0.20;;;-6.10;99.90;;;;;;5057339;28;20183;-70
2024/01/12 04:57:57;;;;;;;1.50;1.40;;;-6.00;99.90;;;;;;5056876;28;20231;-65
2024/01/12 05:00:22;;;;;;;0.50;0.50;;;-6.00;99.90;;;;;;5056920;28;20617;-70
2024/01/12 05:02:48;;;;;;;0.63;0.63;;;-5.90;99.90;;;;;;5055684;28;20208;-67
2024/01/12 05:05:14;;;;;;;0.30;0.30;;;-5.90;99.90;;;;;;5057526;28;20252;-66
2024/01/12 05:07:39;;;;;;;5.17;1.80;;;-5.90;99.90;;;;;;5057425;28;20177;-67
2024/01/12 05:10:06;;;;;;;0.40;0.40;;;-5.90;99.90;;;;;;5057267;28;20231;-67
2024/01/12 05:12:32;;;;;;;0.43;0.43;;;-6.00;99.90;;;;;;5057367;28;20180;-65
2024/01/12 05:14:58;;;;;;;0.30;0.30;;;-6.00;99.90;;;;;;5057180;28;20173;-65
2024/01/12 05:17:24;;;;;;;0.70;0.70;;;-6.00;99.90;;;;;;5055339;28;20173;-69
2024/01/12 05:19:49;;;;;;;0.10;0.10;;;-6.00;99.90;;;;;;5056302;28;20185;-69
2024/01/12 05:22:15;;;;;;;0.10;0.10;;;-6.00;99.90;;;;;;5051639;28;20232;-73
2024/01/12 05:24:41;;;;;;;0.10;0.10;;;-6.10;99.90;;;;;;5051345;28;20177;-67
2024/01/12 05:27:07;;;;;;;0.00;0.00;;;-6.10;99.90;;;;;;5053659;28;20266;-65
2024/01/12 05:29:33;;;;;;;0.30;0.30;;;-6.10;99.90;;;;;;5053468;28;20188;-66
2024/01/12 05:31:59;;;;;;;0.10;0.10;;;-6.20;99.90;;;;;;5052506;28;20909;-66
2024/01/12 05:34:25;;;;;;;0.37;0.37;;;-6.20;99.90;;;;;;5053600;28;20514;-64
2024/01/12 05:36:50;;;;;;;0.00;0.00;;;-6.20;99.90;;;;;;5052812;28;20170;-66
2024/01/12 05:39:16;;;;;;;0.53;0.30;;;-6.20;99.90;;;;;;5052989;28;20181;-64
2024/01/12 05:41:42;;;;;;;1.27;1.23;;;-6.20;99.90;;;;;;5053008;28;20228;-63
2024/01/12 05:44:08;;;;;;;2.47;1.43;;;-6.20;99.90;;;;;;5041304;28;20190;-63
2024/01/12 05:46:33;;;;;;;0.47;0.47;;;-6.20;99.90;;;;;;5033371;28;20692;-63
2024/01/12 05:49:03;;;;;;;0.20;0.20;;;-6.20;99.90;;;;;;5033200;28;20265;-63
2024/01/12 05:51:29;;;;;;;0.20;0.20;;;-6.20;99.90;;;;;;5033117;28;20182;-68
2024/01/12 05:53:55;;;;;;;0.13;0.13;;;-6.20;99.90;;;;;;5052113;28;20190;-72
2024/01/12 05:56:20;;;;;;;0.20;0.20;;;-5.40;99.90;;;;;;5053192;28;20185;-71
2024/01/12 05:58:46;;;;;;;0.07;0.07;;;-5.10;99.90;;;;;;5051994;28;20182;-70
2024/01/12 06:01:11;;;;;;;0.30;0.30;;;-5.20;99.90;;;;;;5061074;28;20308;-71
2024/01/12 06:03:37;;;;;;;0.30;0.30;;;-5.30;99.90;;;;;;5052824;28;20372;-71
2024/01/12 06:06:03;;;;;;;0.40;0.40;;;-5.40;99.90;;;;;;5052561;28;20188;-71
2024/01/12 06:08:29;;;;;;;0.10;0.10;;;-5.60;99.90;;;;;;5052760;28;20185;-71
2024/01/12 06:10:54;;;;;;;0.43;0.43;;;-5.80;99.90;;;;;;5052787;28;20624;-72
2024/01/12 06:13:20;;;;;;;4.50;0.93;;;-5.90;99.90;;;;;;5051834;28;20243;-72
2024/01/12 06:15:46;;;;;;;0.17;0.17;;;-6.00;99.90;;;;;;5052941;28;20178;-70
2024/01/12 06:18:11;;;;;;;0.33;0.33;;;-6.00;99.90;;;;;;5053116;28;20224;-72
2024/01/12 06:20:37;;;;;;;0.10;0.10;;;-6.10;99.90;;;;;;5053098;28;20185;-70
2024/01/12 06:23:02;;;;;;;0.83;0.83;;;-6.10;99.90;;;;;;5053177;28;20228;-71
2024/01/12 06:25:29;;;;;;;1.40;0.97;;;-6.10;99.90;;;;;;5053117;28;20220;-71
2024/01/12 06:27:55;;;;;;;0.20;0.20;;;-6.20;99.90;;;;;;5053065;28;20185;-72
2024/01/12 06:30:20;;;;;;;0.23;0.20;;;-6.20;99.90;;;;;;5053046;28;20603;-71
2024/01/12 06:32:46;;;;;;;1.30;1.20;;;-6.20;99.90;;;;;;5052192;28;20192;-72
2024/01/12 06:35:12;;;;;;;0.70;0.70;;;-6.20;99.90;;;;;;5052699;28;20227;-72
2024/01/12 06:37:38;;;;;;;0.40;0.40;;;-6.30;99.90;;;;;;5052535;28;20702;-71
2024/01/12 06:40:04;;;;;;;0.00;0.00;;;-6.30;99.90;;;;;;5052946;28;20265;-71
2024/01/12 06:42:30;;;;;;;1.20;1.20;;;-6.30;99.90;;;;;;5052403;28;20272;-71
2024/01/12 06:44:56;;;;;;;0.47;0.47;;;-6.30;99.90;;;;;;5052725;28;20177;-71
2024/01/12 06:47:22;;;;;;;0.10;0.10;;;-6.30;99.90;;;;;;5052751;28;20181;-71
2024/01/12 06:49:47;;;;;;;0.53;0.53;;;-6.30;99.90;;;;;;5052644;28;20632;-70
2024/01/12 06:52:13;;;;;;;1.13;1.03;;;-6.30;99.90;;;;;;5052682;28;20184;-71
2024/01/12 06:54:43;;;;;;;0.17;0.17;;;-6.40;99.90;;;;;;5052634;28;20273;-71
2024/01/12 06:57:08;;;;;;;0.50;0.50;;;-6.40;99.90;;;;;;5052377;28;20551;-72
2024/01/12 06:59:34;;;;;;;0.10;0.10;;;-6.40;99.90;;;;;;5052499;28;20178;-71
2024/01/12 07:01:59;;;;;;;0.20;0.20;;;-6.40;99.90;;;;;;5052375;28;20209;-71
2024/01/12 07:04:25;;;;;;;0.10;0.10;;;-6.40;99.90;;;;;;5052485;28;20178;-71
2024/01/12 07:06:51;;;;;;;0.10;0.10;;;-6.40;99.90;;;;;;5052213;28;20264;-71
2024/01/12 07:09:17;;;;;;;0.17;0.17;;;-6.40;99.90;;;;;;5052393;28;20264;-72
2024/01/12 07:11:43;;;;;;;1.30;0.47;;;-6.40;99.90;;;;;;5051937;28;20700;-71
2024/01/12 07:14:09;;;;;;;0.20;0.20;;;-6.40;99.90;;;;;;5052075;28;20177;-72
2024/01/12 07:16:36;;;;;;;0.10;0.10;;;-6.30;99.90;;;;;;5052014;28;20212;-71
2024/01/12 07:19:01;;;;;;;0.10;0.10;;;-6.40;99.90;;;;;;5052067;28;20174;-72
2024/01/12 07:21:27;;;;;;;0.60;0.60;;;-6.40;99.90;;;;;;5052010;28;20200;-72
2024/01/12 07:23:52;;;;;;;0.77;0.77;;;-6.40;99.90;;;;;;5052057;28;20192;-71
2024/01/12 07:26:18;;;;;;;0.57;0.57;;;-6.40;99.90;;;;;;5052335;28;20186;-71
2024/01/12 07:28:43;;;;;;;0.63;0.63;;;-6.40;99.90;;;;;;5051880;28;20178;-71
2024/01/12 07:31:09;;;;;;;0.03;0.03;;;-6.30;99.90;;;;;;5051746;28;20244;-71
2024/01/12 07:33:34;;;;;;;0.20;0.20;;;-6.30;99.90;;;;;;5051818;28;20177;-71
2024/01/12 07:36:00;;;;;;;0.40;0.40;;;-6.30;99.90;;;;;;5051708;28;20173;-71
2024/01/12 07:38:25;;;;;;;0.27;0.27;;;-6.30;99.90;;;;;;5051608;28;20181;-71
2024/01/12 07:40:51;;;;;;;0.60;0.23;;;-6.40;99.90;;;;;;5049921;28;20307;-71
2024/01/12 07:43:16;;;;;;;0.10;0.10;;;-6.30;99.90;;;;;;5051599;28;20209;-72
2024/01/12 07:45:42;;;;;;;0.30;0.30;;;-6.30;99.90;;;;;;5050804;28;20664;-72
2024/01/12 07:48:07;;;;;;;0.00;0.00;;;-6.30;99.90;;;;;;5051575;28;20177;-71
2024/01/12 07:50:33;;;;;;;1.80;1.60;;;-6.20;99.90;;;;;;5051465;28;20681;-71
2024/01/12 07:52:59;;;;;;;0.20;0.20;;;-6.20;99.90;;;;;;5051493;28;20268;-72
2024/01/12 07:55:25;;;;;;;0.20;0.20;;;-6.20;99.90;;;;;;5051608;28;20583;-72
2024/01/12 07:57:50;;;;;;;0.70;0.67;;;-6.10;99.90;;;;;;5051318;28;20184;-71
2024/01/12 08:00:17;;;;;;;0.57;0.57;;;-6.10;99.90;;;;;;5051521;28;20177;-71
2024/01/12 08:02:43;;;;;;;0.20;0.20;;;-6.00;99.90;;;;;;5051358;28;20213;-71
2024/01/12 08:05:08;;;;;;;0.40;0.40;;;-6.00;99.90;;;;;;5051646;28;20257;-71
2024/01/12 08:07:35;;;;;;;0.30;0.30;;;-5.90;99.90;;;;;;5050278;28;20181;-71
2024/01/12 08:10:01;;;;;;;0.23;0.23;;;-5.80;99.90;;;;;;5051443;28;20613;-72
2024/01/12 08:12:26;;;;;;;0.23;0.23;;;-5.80;99.90;;;;;;5051495;28;20248;-72
2024/01/12 08:14:52;;;;;;;0.57;0.57;;;-5.70;99.90;;;;;;5051326;28;20201;-72
2024/01/12 08:17:17;;;;;;;0.10;0.10;;;-5.60;99.90;;;;;;5051648;28;20268;-73
2024/01/12 08:19:43;;;;;;;0.23;0.23;;;-5.50;99.90;;;;;;5051541;28;20509;-73
2024/01/12 08:22:08;;;;;;;0.30;0.30;;;-5.40;99.90;;;;;;5051175;28;20228;-73
2024/01/12 08:24:34;;;;;;;0.00;0.00;;;-5.30;99.90;;;;;;5051368;28;20169;-72
2024/01/12 08:26:59;;;;;;;0.50;0.50;;;-5.20;99.90;;;;;;5051497;28;20587;-72
2024/01/12 08:29:24;;;;;;;0.83;0.83;;;-5.10;99.90;;;;;;5051385;28;20227;-72
2024/01/12 08:31:51;;;;;;;0.23;0.23;;;-5.00;99.90;;;;;;5051207;28;20280;-72
2024/01/12 08:34:17;;;;;;;0.10;0.10;;;-4.90;99.90;;;;;;5051349;28;20169;-72
2024/01/12 08:36:42;;;;;;;0.57;0.57;;;-4.80;99.90;;;;;;5051189;28;20173;-72
2024/01/12 08:39:08;;;;;;;1.03;0.93;;;-4.70;99.90;;;;;;5051131;28;20175;-73
2024/01/12 08:41:33;;;;;;;0.53;0.53;;;-4.60;99.90;;;;;;5050901;28;20228;-72
2024/01/12 08:43:59;;;;;;;0.10;0.10;;;-4.40;99.90;;;;;;5050099;28;20198;-72
2024/01/12 08:46:24;;;;;;;0.40;0.40;;;-4.30;99.90;;;;;;5051359;28;20199;-72
2024/01/12 08:48:52;;;;;;;0.63;0.63;;;-4.20;99.90;;;;;;5050934;28;20552;-70
2024/01/12 08:51:17;;;;;;;0.73;0.73;;;-4.10;99.90;;;;;;5051239;28;20224;-71
2024/01/12 08:53:43;;;;;;;0.20;0.20;;;-4.00;99.90;;;;;;5051178;28;20528;-72
2024/01/12 08:56:08;;;;;;;0.83;0.67;;;-3.80;99.90;;;;;;5052686;28;20173;-71
2024/01/12 08:58:34;;;;;;;0.30;0.30;;;-3.70;99.90;;;;;;5054899;28;20629;-71
2024/01/12 09:01:00;;;;;;;0.30;0.30;;;-3.60;99.90;;;;;;5054682;28;20683;-72
2024/01/12 09:03:26;;;;;;;0.20;0.20;;;-3.50;99.90;;;;;;5054770;28;20178;-72
2024/01/12 09:05:51;;;;;;;1.23;1.20;;;-3.50;99.90;;;;;;5054596;28;20660;-71
2024/01/12 09:08:17;;;;;;;0.30;0.30;;;-3.40;99.90;;;;;;5054628;28;20181;-71
2024/01/12 09:10:42;;;;;;;1.17;1.13;;;-3.30;99.90;;;;;;5054587;28;20177;-71
2024/01/12 09:13:08;;;;;;;0.13;0.13;;;-3.20;99.90;;;;;;5053135;28;20178;-72
2024/01/12 09:15:33;;;;;;;0.73;0.73;;;-3.00;99.90;;;;;;5053330;28;20570;-71
2024/01/12 09:17:59;;;;;;;2.73;1.57;;;-2.80;99.90;;;;;;5054413;28;20174;-71
2024/01/12 09:20:25;;;;;;;0.10;0.10;;;-2.70;99.90;;;;;;5054456;28;20536;-71
2024/01/12 09:22:51;;;;;;;0.57;0.57;;;-2.50;99.90;;;;;;5053088;28;20220;-71
2024/01/12 09:25:16;;;;;;;0.63;0.63;;;-2.30;99.90;;;;;;5054335;28;20174;-72
2024/01/12 09:27:42;;;;;;;0.63;0.40;;;-2.20;99.90;;;;;;5036658;28;20181;-71
2024/01/12 09:30:08;;;;;;;0.60;0.30;;;-2.10;99.90;;;;;;5054332;28;20189;-71
2024/01/12 09:32:33;;;;;;;0.07;0.07;;;-2.00;99.90;;;;;;5054207;28;20243;-70
2024/01/12 09:34:58;;;;;;;0.30;0.30;;;-2.00;99.90;;;;;;5054218;28;20173;-71
2024/01/12 09:37:24;;;;;;;0.20;0.20;;;-1.90;99.90;;;;;;5054188;28;20181;-71
2024/01/12 09:39:50;;;;;;;0.07;0.07;;;-1.90;99.90;;;;;;5054014;28;20215;-71
2024/01/12 09:42:17;;;;;;;0.30;0.30;;;-1.70;99.90;;;;;;5052616;28;20616;-71
2024/01/12 09:44:47;;;;;;;0.00;0.00;;;-1.70;99.90;;;;;;5052767;28;20166;-70
2024/01/12 09:47:12;;;;;;;0.27;0.27;;;-1.60;99.90;;;;;;5053978;28;20188;-70
2024/01/12 09:49:38;;;;;;;0.10;0.10;;;-1.50;99.90;;;;;;5053722;28;20181;-70
2024/01/12 09:52:07;;;;;;;0.03;0.03;;;-1.40;99.90;;;;;;5053954;28;20270;-70
2024/01/12 09:54:34;;;;;;;0.20;0.20;;;-1.40;99.90;;;;;;5053718;28;20215;-70
2024/01/12 09:57:03;;;;;;;0.00;0.00;;;-1.40;99.90;;;;;;5053887;28;20189;-71
2024/01/12 09:59:28;;;;;;;0.37;0.37;;;-1.40;99.90;;;;;;5053836;28;20664;-71
2024/01/12 10:01:56;;;;;;;0.00;0.00;;;-1.40;99.90;;;;;;5053902;28;20201;-70
2024/01/12 10:04:22;;;;;;;0.00;0.00;;;-1.40;99.90;;;;;;5053915;28;20184;-71
2024/01/12 10:06:47;;;;;;;0.00;0.00;;;-1.40;99.90;;;;;;5053268;28;20185;-71
2024/01/12 10:09:16;;;;;;;0.20;0.20;;;-1.50;99.90;;;;;;5053930;28;20379;-70
2024/01/12 10:11:42;;;;;;;0.00;0.00;;;-1.40;99.90;;;;;;5054601;28;20208;-70
2024/01/12 10:14:08;;;;;;;0.30;0.30;;;-1.40;99.90;;;;;;5054604;28;20228;-71
2024/01/12 10:16:33;;;;;;;0.23;0.23;;;-1.30;99.90;;;;;;5055323;28;20181;-70
2024/01/12 10:18:59;;;;;;;0.00;0.00;;;-1.20;99.90;;;;;;5053369;28;20224;-70
2024/01/12 10:21:25;;;;;;;0.13;0.13;;;-1.10;99.90;;;;;;5054389;28;20209;-70
2024/01/12 10:24:00;;;;;;;0.30;0.30;;;-1.00;99.90;;;;;;5054322;28;20656;-71
2024/01/12 10:26:25;;;;;;;0.10;0.10;;;-1.00;99.90;;;;;;5053647;28;20193;-71
2024/01/12 10:28:51;;;;;;;0.40;0.38;;;-1.00;99.90;;;;;;5055098;28;20641;-70
2024/01/12 10:31:18;;;;;;;0.77;0.77;;;-1.00;99.90;;;;;;5055474;28;20570;-70
2024/01/12 10:33:45;;;;;;;0.00;0.00;;;-1.00;99.90;;;;;;5054361;28;20571;-70
2024/01/12 10:36:18;;;;;;;0.40;0.40;;;-1.00;99.90;;;;;;5054113;28;20208;-70
2024/01/12 10:38:44;;;;;;;0.67;0.67;;;-1.00;99.90;;;;;;5054182;28;20186;-70
2024/01/12 10:41:11;;;;;;;0.60;0.60;;;-1.00;99.90;;;;;;5053568;28;20261;-71
2024/01/12 10:43:38;;;;;;;0.03;0.03;;;-1.00;99.90;;;;;;5053311;28;20619;-70
2024/01/12 10:46:22;;;;;;;0.10;0.10;;;-1.00;99.90;;;;;;5053095;28;20228;-71
2024/01/12 10:49:05;;;;;;;0.00;0.00;;;-1.00;99.90;;;;;;5052782;28;20189;-71
2024/01/12 10:51:36;;;;;;;0.23;0.23;;;-1.00;99.90;;;;;;5052729;28;20177;-71
2024/01/12 10:54:12;;;;;;;0.03;0.03;;;-0.90;99.90;;;;;;5052827;28;20289;-71
2024/01/12 10:56:38;;;;;;;0.97;0.23;;;-0.90;99.90;;;;;;5052697;28;20247;-71
2024/01/12 10:59:05;;;;;;;0.10;0.10;;;-0.80;99.90;;;;;;5052663;28;20188;-71
2024/01/12 11:01:34;;;;;;;0.10;0.10;;;-0.90;99.90;;;;;;5052432;28;20205;-71
2024/01/12 11:04:00;;;;;;;0.55;0.55;;;-0.90;99.90;;;;;;5051274;28;20185;-71
2024/01/12 11:06:27;;;;;;;0.37;0.37;;;-0.80;99.90;;;;;;5052426;28;20297;-71
2024/01/12 11:08:55;;;;;;;0.10;0.10;;;-0.80;99.90;;;;;;5052393;28;20265;-73
2024/01/12 11:11:23;;;;;;;1.27;1.17;;;-0.80;99.90;;;;;;5052581;28;20174;-70
2024/01/12 11:13:49;;;;;;;0.13;0.13;;;-0.80;99.90;;;;;;5052190;28;20185;-71
2024/01/12 11:16:15;;;;;;;0.03;0.03;;;-0.80;99.90;;;;;;5052468;28;20169;-71
2024/01/12 11:18:41;;;;;;;0.00;0.00;;;-0.80;99.90;;;;;;5052122;28;20220;-71
2024/01/12 11:21:06;;;;;;;1.80;1.33;;;-0.80;99.90;;;;;;5052199;28;20169;-71
2024/01/12 11:23:42;;;;;;;0.95;0.95;;;-0.80;99.90;;;;;;5052177;28;20230;-70
2024/01/12 11:26:08;;;;;;;0.00;0.00;;;-0.80;99.90;;;;;;5052276;28;20165;-71
2024/01/12 11:28:38;;;;;;;0.23;0.23;;;-0.80;99.90;;;;;;5050817;28;20613;-71
2024/01/12 11:31:04;;;;;;;0.07;0.07;;;-0.80;99.90;;;;;;5052014;28;20170;-72
2024/01/12 11:33:31;;;;;;;0.00;0.00;;;-0.70;99.90;;;;;;5052003;28;20183;-72
2024/01/12 11:36:01;;;;;;;0.13;0.13;;;-0.70;99.90;;;;;;5052060;28;20257;-72
2024/01/12 11:38:38;;;;;;;0.30;0.30;;;-0.70;99.90;;;;;;5052208;28;20182;-72
2024/01/12 11:41:12;;;;;;;0.00;0.00;;;-0.60;99.90;;;;;;5051775;28;20315;-71
2024/01/12 11:43:37;;;;;;;0.03;0.03;;;-0.60;99.90;;;;;;5051902;28;20574;-72
2024/01/12 11:46:05;;;;;;;0.00;0.00;;;-0.70;99.90;;;;;;5051726;28;20185;-72
2024/01/12 11:48:31;;;;;;;0.00;0.00;;;-0.70;99.90;;;;;;5051808;28;20181;-72
2024/01/12 11:50:57;;;;;;;0.13;0.13;;;-0.70;99.90;;;;;;5051812;28;20181;-72
2024/01/12 11:53:22;;;;;;;0.00;0.00;;;-0.80;99.90;;;;;;5051905;28;20181;-72
2024/01/12 11:55:48;;;;;;;0.10;0.10;;;-0.80;99.90;;;;;;5051465;28;20264;-72
2024/01/12 11:58:14;;;;;;;0.22;0.22;;;-0.80;99.90;;;;;;5051770;28;20529;-72
2024/01/12 12:00:40;;;;;;;0.40;0.40;;;-0.80;99.90;;;;;;5051558;28;20177;-72
2024/01/12 12:03:07;;;;;;;0.10;0.10;;;-0.80;99.90;;;;;;5051543;28;20212;-72
2024/01/12 12:05:33;;;;;;;0.20;0.20;;;-0.80;99.90;;;;;;5051761;28;20533;-71
2024/01/12 12:07:58;;;;;;;0.13;0.13;;;-0.70;99.90;;;;;;5051561;28;20185;-72
2024/01/12 12:10:25;;;;;;;0.55;0.55;;;-0.60;99.90;;;;;;5051655;28;20178;-72
2024/01/12 12:12:50;;;;;;;0.20;0.20;;;-0.60;99.90;;;;;;5051501;28;20170;-73
2024/01/12 12:15:16;;;;;;;0.00;0.00;;;-0.60;99.90;;;;;;5051740;28;20169;-72
2024/01/12 12:17:45;;;;;;;0.05;0.05;;;-0.60;99.90;;;;;;5050315;28;20610;-72
2024/01/12 12:20:12;;;;;;;0.00;0.00;;;-0.60;99.90;;;;;;5051332;28;20170;-71
2024/01/12 12:22:41;;;;;;;0.08;0.08;;;-0.70;99.90;;;;;;5051569;28;20610;-71
2024/01/12 12:25:09;;;;;;;0.32;0.32;;;-0.70;99.90;;;;;;5051442;28;20212;-71
2024/01/12 12:27:36;;;;;;;0.00;0.00;;;-0.70;99.90;;;;;;5051492;28;20184;-71
2024/01/12 12:30:02;;;;;;;0.35;0.35;;;-0.60;99.90;;;;;;5051887;28;20170;-72
2024/01/12 12:32:28;;;;;;;0.20;0.20;;;-0.60;99.90;;;;;;5055531;28;20264;-72
2024/01/12 12:34:53;;;;;;;0.10;0.10;;;-0.60;99.90;;;;;;5055582;28;20763;-72
2024/01/12 12:37:21;;;;;;;0.17;0.17;;;-0.50;99.90;;;;;;5055366;28;20187;-72
2024/01/12 12:39:47;;;;;;;0.40;0.40;;;-0.50;99.90;;;;;;5055384;28;20538;-69
2024/01/12 12:42:12;;;;;;;0.08;0.08;;;-0.40;99.90;;;;;;5054829;28;20292;-70